الصفحة الرئيسية
METAR-TAF:

METAR-TAF

مطار :

مطار الملك عبد العزيز الدولي

جدة, السعودية

دائرة عرض: 21-42N, خط طول: 039-11E, ارتفاع: 15 متر

مراقبة الطقس الحالي

تاريخ ووقت الإصدار 47 دقيقة قبل الساعة 15:00UTC
ريح 12 عقدة من الشمال/الشمال الغربي
درجة الحرارة 27°درجة مئوية
الرطوبة 39%
ضغط 1015 hPa
الرؤية 10 كم أو أكثر
الغيوم لا تقل 1500 م ولا وجود لمزنة ركامية السحاب الأسود

METAR: OEJN 161500Z 33012KT CAVOK 27/12 Q1015 NOSIG

زمن: 18:47 (15:47 UTC)

توقعات

تاريخ ووقت الإصدار 4ساعات و 47 دقيقة قبل الساعة 11:00UTC
التوقعات صالحة من16 الساعة 12 UTC إلى 17 الساعة 18 UTC
ريح 15 عقدة من الشمال/الشمال الغربي
الرؤية 10 كم أو أكثر
غيوم قليلة على ارتفاع 4000 قدم
أصبح
من 16 الساعة 18 UTC إلى 16 الساعة 20 UTC
ريح 8 عقدة من الشمال/الشمال الشرقي

TAF: OEJN 161100Z 1612/1718 33015KT 9999 FEW040 BECMG 1618/1620 03008KT

أرصاد الطقس والتوقعات من أكثر من 4000 مطار (تقارير الطقس للمطار METAR والتنبؤ بالطقس بالمطارTAF).

المحطات المتاحة هي النقط الصفراء والحمراء على الخريطة.

حرك المؤشر فوق النقطة لمعرفة اسم المحطة.

ثم انقر لمعرفة أرصاد وتوقعات الطقس.

لتغيير الخارطة: اضغط على الأزرار الخضراء مع رمز الصليب الأسود للتكبير. على الزر الأخضر مع شرطة للتصغير، أو على الأسهم الخضراء للخرائط المجاورة.


METAR-TAF: